ADDS METAR Data INFO
IDs: Format: Raw Decoded Include TAF

Data at: 1120 UTC 21 Feb 2018

KRPH 201455Z AUTO 16006KT 17/ A2983 RMK AO2 T0173 PWINO
KRPH 201435Z AUTO 16008G15KT 17/ A2983 RMK AO2 T0172 PWINO
KRPH 201415Z AUTO 15008KT 17/ A2981 RMK AO2 T0170 PWINO
KRPH 201355Z AUTO 14010G18KT 18/15 A2981 RMK AO2 T01780154 PWINO
KRPH 201335Z AUTO 14012G18KT 18/16 A2980 RMK AO2 T01830163 PWINO
KRPH 201315Z AUTO 14006G14KT 18/16 A2981 RMK AO2 T01810160 PWINO
KRPH 201255Z AUTO 15011G20KT 18/15 A2980 RMK AO2 T01810148 PWINO
KRPH 201235Z AUTO 14013G18KT 18/14 A2979 RMK AO2 T01810142 PWINO
KRPH 201215Z AUTO 13011G18KT 19/14 A2979 RMK AO2 T01920135 PWINO
KRPH 201155Z AUTO 16008KT 19/14 A2980 RMK AO2 T01930136 10220 20193 PWINO
KRPH 201135Z AUTO 15008G15KT 20/14 A2979 RMK AO2 T01950140 PWINO
KRPH 201115Z AUTO 16011G15KT 20/14 A2979 RMK AO2 T01980141 PWINO
KRPH 201055Z AUTO 17008KT 20/15 A2977 RMK AO2 T02000148 PWINO
KRPH 201035Z AUTO 17008KT 20/16 A2976 RMK AO2 T02040155 PWINO
KRPH 201015Z AUTO 17008G17KT 21/16 A2976 RMK AO2 T02100159 PWINO
KRPH 200955Z AUTO 17009G16KT 21/16 A2975 RMK AO2 T02130164 PWINO
KRPH 200935Z AUTO 16008G14KT 22/17 A2974 RMK AO2 T02150172 PWINO
KRPH 200915Z AUTO 17008G18KT 22/18 A2974 RMK AO2 T02160177 PWINO
KRPH 200855Z AUTO 15011G16KT 120V180 22/18 A2973 RMK AO2 T02160177 PWINO
KRPH 200835Z AUTO 15011G19KT 22/18 A2973 RMK AO2 T02160177 PWINO
KRPH 200815Z AUTO 15013G20KT 22/18 A2973 RMK AO2 T02170177 PWINO
KRPH 200755Z AUTO 15013G19KT 22/18 A2974 RMK AO2 T02170176 PWINO
KRPH 200735Z AUTO 16012G22KT 22/18 A2974 RMK AO2 T02180176 PWINO
KRPH 200715Z AUTO 15015G24KT 22/18 A2976 RMK AO2 T02200175 PWINO
KRPH 200655Z AUTO 16013G20KT 22/18 A2976 RMK AO2 T02190175 PWINO
KRPH 200635Z AUTO 16013G22KT 22/18 A2975 RMK AO2 T02170175 PWINO
KRPH 200615Z AUTO 16014G22KT 22/18 A2975 RMK AO2 T02160175 PWINO
KRPH 200555Z AUTO 15011G17KT 22/18 A2975 RMK AO2 T02150176 10245 20210 402660181 PWINO
KRPH 200535Z AUTO 15010G18KT 21/18 A2975 RMK AO2 T02120175 PWINO
KRPH 200515Z AUTO 15011G19KT 21/18 A2974 RMK AO2 T02130175 PWINO
KRPH 200455Z AUTO 15011G19KT 21/17 A2974 RMK AO2 T02120173 PWINO
KRPH 200435Z AUTO 14011G18KT 21/17 A2974 RMK AO2 T02110170 PWINO
KRPH 200415Z AUTO 15013G20KT 22/17 A2973 RMK AO2 T02150168 PWINO
KRPH 200355Z AUTO 14015G23KT 120V180 22/16 A2972 RMK AO2 T02160164 PWINO
KRPH 200335Z AUTO 14014G21KT 22/16 A2971 RMK AO2 T02170160 PWINO
KRPH 200315Z AUTO 14012G20KT 22/16 A2970 RMK AO2 T02170157 PWINO
KRPH 200255Z AUTO 13010G15KT 22/16 A2973 RMK AO2 T02200155 PWINO
KRPH 200235Z AUTO 15008G15KT 22/15 A2974 RMK AO2 T02200153 PWINO
KRPH 200215Z AUTO 15008G16KT 22/15 A2974 RMK AO2 T02220151 PWINO
KRPH 200155Z AUTO 14010G14KT 23/15 A2974 RMK AO2 T02250150 PWINO
KRPH 200135Z AUTO 16010G14KT 23/15 A2973 RMK AO2 T02270148 PWINO
KRPH 200115Z AUTO 16008G15KT 23/15 A2973 RMK AO2 T02300147 PWINO
KRPH 200055Z AUTO 15010G14KT 23/15 A2971 RMK AO2 T02320146 PWINO
KRPH 200035Z AUTO 16009G15KT 24/15 A2972 RMK AO2 T02370146 PWINO
KRPH 200015Z AUTO 16008G14KT 24/15 A2971 RMK AO2 T02420146 PWINO
KRPH 192355Z AUTO 16009KT 25/15 A2971 RMK AO2 T02450150 10266 20225 PWINO
KRPH 192335Z AUTO 15011G18KT 25/15 A2971 RMK AO2 T02500150 PWINO